Time;durP1;ratioP1;P1;durP2;ratioP2;P2;SDS_P1;SDS_P2;PMS_P1;PMS_P2;Temp;Humidity;BMP_temperature;BMP_pressure;BME280_temperature;BME280_humidity;BME280_pressure;Samples;Min_cycle;Max_cycle;Signal;HPM_P1;HPM_P2
2023/04/25 00:01:28;;;;;;;8.88;3.67;;;8.80;99.90;;;;;;4152092;28;20057;-68
2023/04/25 00:03:29;;;;;;;10.25;3.88;;;8.80;99.90;;;;;;4155953;28;20040;-69
2023/04/25 00:05:30;;;;;;;11.05;4.00;;;8.80;99.90;;;;;;4156489;28;20195;-70
2023/04/25 00:07:32;;;;;;;10.93;4.15;;;8.80;99.90;;;;;;4156573;28;20392;-70
2023/04/25 00:09:33;;;;;;;10.38;4.45;;;8.70;99.90;;;;;;4162342;28;20123;-70
2023/04/25 00:11:33;;;;;;;13.07;4.10;;;8.80;99.90;;;;;;4159226;28;20465;-70
2023/04/25 00:13:34;;;;;;;8.82;3.67;;;8.70;99.90;;;;;;4160489;28;20034;-70
2023/04/25 00:15:35;;;;;;;9.82;3.63;;;8.70;99.90;;;;;;4162062;28;20043;-70
2023/04/25 00:17:38;;;;;;;9.60;3.92;;;8.70;99.90;;;;;;4162210;28;20040;-68
2023/04/25 00:19:38;;;;;;;12.68;3.92;;;8.70;99.90;;;;;;4163657;28;20044;-70
2023/04/25 00:21:40;;;;;;;12.90;4.20;;;8.70;99.90;;;;;;4160504;28;20405;-70
2023/04/25 00:23:41;;;;;;;15.47;4.80;;;8.70;99.90;;;;;;4148672;28;20095;-70
2023/04/25 00:25:41;;;;;;;14.27;4.57;;;8.70;99.90;;;;;;4161989;28;20037;-69
2023/04/25 00:27:42;;;;;;;8.48;3.53;;;8.70;99.90;;;;;;4162521;28;20104;-70
2023/04/25 00:29:43;;;;;;;10.90;4.28;;;8.60;99.90;;;;;;4163052;28;20179;-70
2023/04/25 00:31:43;;;;;;;8.35;4.00;;;8.60;99.90;;;;;;4158745;28;20116;-70
2023/04/25 00:33:44;;;;;;;11.30;4.22;;;8.60;99.90;;;;;;4160425;28;20083;-70
2023/04/25 00:35:44;;;;;;;13.48;4.30;;;8.60;99.90;;;;;;4160520;28;20476;-70
2023/04/25 00:37:45;;;;;;;10.43;4.07;;;8.60;99.90;;;;;;4152249;28;20396;-70
2023/04/25 00:39:46;;;;;;;10.48;4.05;;;8.60;99.90;;;;;;4160842;28;20045;-70
2023/04/25 00:41:47;;;;;;;13.80;4.38;;;8.60;99.90;;;;;;4159637;28;20042;-69
2023/04/25 00:43:48;;;;;;;14.18;4.22;;;8.60;99.90;;;;;;4156641;28;20062;-70
2023/04/25 00:45:52;;;;;;;13.13;4.50;;;8.60;99.90;;;;;;4159258;28;20062;-70
2023/04/25 00:47:52;;;;;;;10.18;4.10;;;8.60;99.90;;;;;;4160890;28;20053;-69
2023/04/25 00:49:53;;;;;;;10.13;4.25;;;8.60;99.90;;;;;;4158170;28;20853;-68
2023/04/25 00:51:54;;;;;;;7.72;3.90;;;8.60;99.90;;;;;;4157582;28;20048;-70
2023/04/25 00:53:55;;;;;;;15.93;4.60;;;8.60;99.90;;;;;;4157130;28;20088;-69
2023/04/25 00:55:56;;;;;;;9.82;3.97;;;8.60;99.90;;;;;;4158667;28;20107;-70
2023/04/25 00:57:56;;;;;;;12.20;4.45;;;8.60;99.90;;;;;;4157215;28;20092;-70
2023/04/25 00:59:58;;;;;;;9.18;3.83;;;8.60;99.90;;;;;;4161601;28;20033;-69
2023/04/25 01:01:59;;;;;;;12.38;4.22;;;8.60;99.90;;;;;;4154383;28;20033;-70
2023/04/25 01:04:01;;;;;;;7.88;3.92;;;8.60;99.90;;;;;;4157571;28;20061;-70
2023/04/25 01:06:02;;;;;;;13.77;4.87;;;8.60;99.90;;;;;;4143579;28;20042;-70
2023/04/25 01:08:03;;;;;;;10.10;4.05;;;8.60;99.90;;;;;;4157986;28;20040;-69
2023/04/25 01:10:06;;;;;;;9.75;3.60;;;8.50;99.90;;;;;;4154575;28;20041;-71
2023/04/25 01:12:06;;;;;;;10.93;4.57;;;8.50;99.90;;;;;;4148792;28;20049;-69
2023/04/25 01:14:07;;;;;;;12.70;4.10;;;8.50;99.90;;;;;;4139039;28;20077;-69
2023/04/25 01:16:08;;;;;;;11.27;4.25;;;8.50;99.90;;;;;;4156005;28;20507;-69
2023/04/25 01:18:08;;;;;;;10.40;4.30;;;8.50;99.90;;;;;;4155454;28;20059;-69
2023/04/25 01:20:10;;;;;;;8.63;4.25;;;8.50;99.90;;;;;;4155539;28;20747;-70
2023/04/25 01:22:11;;;;;;;7.65;4.05;;;8.40;99.90;;;;;;4156830;28;20084;-70
2023/04/25 01:24:12;;;;;;;13.60;4.30;;;8.50;99.90;;;;;;4156070;28;20033;-69
2023/04/25 01:26:13;;;;;;;10.45;4.18;;;8.50;99.90;;;;;;4157923;28;20045;-69
2023/04/25 01:28:14;;;;;;;13.68;4.40;;;8.50;99.90;;;;;;4159054;28;20030;-69
2023/04/25 01:30:15;;;;;;;11.02;3.80;;;8.50;99.90;;;;;;4159035;28;20101;-70
2023/04/25 01:32:16;;;;;;;12.20;4.53;;;8.60;99.90;;;;;;4155058;28;20096;-70
2023/04/25 01:34:17;;;;;;;11.30;3.70;;;8.60;99.90;;;;;;4156402;28;20053;-69
2023/04/25 01:36:18;;;;;;;13.82;4.43;;;8.60;99.90;;;;;;4154352;28;20038;-69
2023/04/25 01:38:18;;;;;;;12.63;4.20;;;8.50;99.90;;;;;;4155695;28;20038;-70
2023/04/25 01:40:21;;;;;;;11.32;4.03;;;8.50;99.90;;;;;;4156189;28;20029;-70
2023/04/25 01:42:21;;;;;;;14.40;4.07;;;8.50;99.90;;;;;;4156385;28;20030;-69
2023/04/25 01:44:22;;;;;;;11.23;4.20;;;8.50;99.90;;;;;;4157335;28;20034;-70
2023/04/25 01:46:23;;;;;;;10.45;3.90;;;8.40;99.90;;;;;;4153953;28;20421;-70
2023/04/25 01:48:24;;;;;;;8.55;3.63;;;8.50;99.90;;;;;;4157598;28;20041;-70
2023/04/25 01:50:25;;;;;;;7.32;3.35;;;8.40;99.90;;;;;;4155403;28;20102;-70
2023/04/25 01:52:25;;;;;;;10.57;3.50;;;8.50;99.90;;;;;;4157882;28;20044;-70
2023/04/25 01:54:26;;;;;;;10.02;4.07;;;8.50;99.90;;;;;;4158391;28;20045;-70
2023/04/25 01:56:36;;;;;;;11.52;4.22;;;8.50;99.90;;;;;;4159453;28;20077;-70
2023/04/25 01:58:36;;;;;;;7.60;3.20;;;8.40;99.90;;;;;;4159284;28;20038;-70
2023/04/25 02:00:38;;;;;;;12.40;3.75;;;8.40;99.90;;;;;;4154716;28;20060;-68
2023/04/25 02:02:39;;;;;;;10.93;3.80;;;8.40;99.90;;;;;;4155446;28;20116;-69
2023/04/25 02:04:39;;;;;;;12.50;3.83;;;8.50;99.90;;;;;;4160266;28;20049;-69
2023/04/25 02:06:40;;;;;;;12.90;3.88;;;8.40;99.90;;;;;;4156919;28;20107;-69
2023/04/25 02:08:40;;;;;;;7.40;2.92;;;8.40;99.90;;;;;;4158462;28;20044;-69
2023/04/25 02:10:41;;;;;;;11.18;3.15;;;8.40;99.90;;;;;;4156691;28;20393;-70
2023/04/25 02:12:42;;;;;;;9.05;3.05;;;8.40;99.90;;;;;;4159031;28;20057;-69
2023/04/25 02:14:42;;;;;;;8.02;2.95;;;8.40;99.90;;;;;;4158085;28;20045;-70
2023/04/25 02:16:43;;;;;;;9.93;3.47;;;8.40;99.90;;;;;;4158188;28;20112;-69
2023/04/25 02:18:44;;;;;;;10.02;3.58;;;8.40;99.90;;;;;;4157010;28;20044;-70
2023/04/25 02:20:45;;;;;;;11.52;3.53;;;8.50;99.90;;;;;;4155906;28;20040;-69
2023/04/25 02:22:46;;;;;;;11.15;3.72;;;8.50;99.90;;;;;;4155370;28;20050;-69
2023/04/25 02:24:46;;;;;;;10.18;3.58;;;8.40;99.90;;;;;;4158550;28;20041;-70
2023/04/25 02:26:49;;;;;;;9.43;3.75;;;8.40;99.90;;;;;;4159832;28;20052;-69
2023/04/25 02:28:50;;;;;;;14.38;3.78;;;8.40;99.90;;;;;;4158822;28;20436;-69
2023/04/25 02:30:51;;;;;;;11.95;3.70;;;8.40;99.90;;;;;;4156923;28;20373;-70
2023/04/25 02:32:51;;;;;;;12.20;4.00;;;8.50;99.90;;;;;;4152271;28;20041;-70
2023/04/25 02:34:52;;;;;;;13.65;4.18;;;8.40;99.90;;;;;;4156537;28;20060;-70
2023/04/25 02:36:52;;;;;;;12.05;4.05;;;8.40;99.90;;;;;;4157223;28;20030;-69
2023/04/25 02:38:53;;;;;;;11.85;3.58;;;8.40;99.90;;;;;;4156215;28;20044;-70
2023/04/25 02:40:54;;;;;;;9.93;3.60;;;8.40;99.90;;;;;;4157772;28;20484;-69
2023/04/25 02:42:54;;;;;;;11.77;3.35;;;8.40;99.90;;;;;;4154864;28;20046;-70
2023/04/25 02:44:55;;;;;;;12.15;3.50;;;8.40;99.90;;;;;;4158466;28;20093;-70
2023/04/25 02:46:56;;;;;;;8.75;3.22;;;8.50;99.90;;;;;;4154853;28;20527;-70
2023/04/25 02:48:56;;;;;;;11.00;3.00;;;8.40;99.90;;;;;;4158893;28;20053;-70
2023/04/25 02:50:57;;;;;;;9.65;3.55;;;8.40;99.90;;;;;;4155822;28;20029;-70
2023/04/25 02:52:57;;;;;;;10.88;4.05;;;8.50;99.90;;;;;;4156856;28;20037;-70
2023/04/25 02:54:58;;;;;;;10.82;3.88;;;8.40;99.90;;;;;;4158248;28;20045;-69
2023/04/25 02:56:58;;;;;;;10.25;3.55;;;8.50;99.90;;;;;;4158003;28;20519;-69
2023/04/25 02:58:59;;;;;;;11.10;3.80;;;8.40;99.90;;;;;;4157612;28;20042;-70
2023/04/25 03:01:00;;;;;;;11.02;3.83;;;8.50;99.90;;;;;;4158076;28;20106;-70
2023/04/25 03:03:01;;;;;;;14.70;4.30;;;8.50;99.90;;;;;;4154675;28;20120;-70
2023/04/25 03:05:03;;;;;;;13.48;3.85;;;8.40;99.90;;;;;;4156593;28;20117;-70
2023/04/25 03:07:05;;;;;;;9.93;3.67;;;8.50;99.90;;;;;;4158256;28;20092;-69
2023/04/25 03:09:06;;;;;;;18.40;4.20;;;8.50;99.90;;;;;;4156313;28;20113;-70
2023/04/25 03:11:06;;;;;;;11.45;3.95;;;8.50;99.90;;;;;;4158302;28;20465;-69
2023/04/25 03:13:07;;;;;;;15.20;3.80;;;8.40;99.90;;;;;;4155646;28;20036;-69
2023/04/25 03:15:08;;;;;;;13.02;4.03;;;8.40;99.90;;;;;;4156881;28;20034;-71
2023/04/25 03:17:08;;;;;;;15.10;4.13;;;8.40;99.90;;;;;;4156841;28;20033;-70
2023/04/25 03:19:09;;;;;;;11.73;3.92;;;8.40;99.90;;;;;;4158854;28;20037;-70
2023/04/25 03:21:09;;;;;;;16.23;3.95;;;8.30;99.90;;;;;;4158460;28;20059;-69
2023/04/25 03:23:10;;;;;;;9.43;3.75;;;8.30;99.90;;;;;;4152798;28;20432;-70
2023/04/25 03:25:11;;;;;;;11.40;3.65;;;8.20;99.90;;;;;;4157058;28;20113;-70
2023/04/25 03:27:11;;;;;;;10.57;3.85;;;8.20;99.90;;;;;;4157930;28;20029;-69
2023/04/25 03:29:12;;;;;;;17.63;4.72;;;8.20;99.90;;;;;;4157942;28;20047;-70
2023/04/25 03:31:12;;;;;;;10.80;3.80;;;8.20;99.90;;;;;;4155912;28;20030;-70
2023/04/25 03:33:13;;;;;;;15.25;4.70;;;8.20;99.90;;;;;;4157639;28;20072;-69
2023/04/25 03:35:13;;;;;;;17.17;4.22;;;8.10;99.90;;;;;;4142800;28;20030;-70
2023/04/25 03:37:14;;;;;;;18.10;4.50;;;8.10;99.90;;;;;;4155355;28;20036;-70
2023/04/25 03:39:15;;;;;;;16.55;4.57;;;8.10;99.90;;;;;;4157135;28;20056;-70
2023/04/25 03:41:16;;;;;;;20.10;4.82;;;8.10;99.90;;;;;;4156840;28;20037;-70
2023/04/25 03:43:16;;;;;;;13.68;4.55;;;8.10;99.90;;;;;;4153403;28;20112;-70
2023/04/25 03:45:17;;;;;;;19.45;3.67;;;8.10;99.90;;;;;;4155919;28;20030;-70
2023/04/25 03:47:18;;;;;;;17.70;4.72;;;8.10;99.90;;;;;;4156800;28;20187;-70
2023/04/25 03:49:18;;;;;;;12.25;3.90;;;8.00;99.90;;;;;;4156975;28;20037;-69
2023/04/25 03:51:19;;;;;;;12.38;4.32;;;8.00;99.90;;;;;;4155793;28;20037;-70
2023/04/25 03:53:20;;;;;;;12.95;4.20;;;8.00;99.90;;;;;;4157787;28;20034;-70
2023/04/25 03:55:20;;;;;;;12.55;4.13;;;8.00;99.90;;;;;;4155491;28;20055;-70
2023/04/25 03:57:21;;;;;;;14.98;4.47;;;8.00;99.90;;;;;;4157211;28;20040;-69
2023/04/25 03:59:21;;;;;;;15.63;4.57;;;8.00;99.90;;;;;;4158179;28;20041;-70
2023/04/25 04:01:22;;;;;;;16.95;4.88;;;7.90;99.90;;;;;;4154880;28;20095;-69
2023/04/25 04:03:22;;;;;;;17.17;4.20;;;7.90;99.90;;;;;;4155628;28;20030;-70
2023/04/25 04:05:23;;;;;;;17.48;4.97;;;7.90;99.90;;;;;;4158145;28;20108;-69
2023/04/25 04:07:24;;;;;;;16.42;4.72;;;7.90;99.90;;;;;;4152667;28;20080;-70
2023/04/25 04:09:24;;;;;;;9.30;3.42;;;7.90;99.90;;;;;;4158217;28;20041;-70
2023/04/25 04:11:25;;;;;;;15.02;4.07;;;7.90;99.90;;;;;;4153604;28;20042;-70
2023/04/25 04:13:27;;;;;;;12.70;4.00;;;7.80;99.90;;;;;;4156781;28;20469;-69
2023/04/25 04:15:27;;;;;;;10.80;3.83;;;7.80;99.90;;;;;;4155858;28;20056;-70
2023/04/25 04:17:28;;;;;;;18.10;4.65;;;7.80;99.90;;;;;;4152535;28;21001;-70
2023/04/25 04:19:28;;;;;;;14.68;4.22;;;7.80;99.90;;;;;;4158135;28;20049;-70
2023/04/25 04:21:29;;;;;;;14.20;4.43;;;7.80;99.90;;;;;;4156274;28;20113;-71
2023/04/25 04:23:31;;;;;;;14.75;4.30;;;7.70;99.90;;;;;;4155712;28;20029;-70
2023/04/25 04:25:31;;;;;;;12.32;4.68;;;7.60;99.90;;;;;;4157070;28;20584;-71
2023/04/25 04:27:32;;;;;;;13.50;4.45;;;7.50;99.90;;;;;;4155914;28;20084;-69
2023/04/25 04:29:32;;;;;;;9.02;3.90;;;7.60;99.90;;;;;;4153401;28;20034;-70
2023/04/25 04:31:33;;;;;;;11.10;3.72;;;7.60;99.90;;;;;;4155525;28;20696;-70
2023/04/25 04:33:34;;;;;;;14.10;4.18;;;7.50;99.90;;;;;;4157502;28;20362;-70
2023/04/25 04:35:35;;;;;;;10.77;4.18;;;7.60;99.90;;;;;;4154143;28;20318;-69
2023/04/25 04:37:36;;;;;;;15.77;3.85;;;7.50;99.90;;;;;;4156087;28;20060;-70
2023/04/25 04:39:37;;;;;;;11.73;3.90;;;7.50;99.90;;;;;;4156403;28;20049;-68
2023/04/25 04:41:37;;;;;;;10.60;3.22;;;7.50;99.90;;;;;;4156225;28;20465;-70
2023/04/25 04:43:39;;;;;;;13.90;4.50;;;7.60;99.90;;;;;;4156012;28;20037;-70
2023/04/25 04:45:40;;;;;;;16.38;4.03;;;7.60;99.90;;;;;;4154965;28;20080;-69
2023/04/25 04:47:40;;;;;;;13.13;4.45;;;7.60;99.90;;;;;;4156516;28;20099;-69
2023/04/25 04:49:41;;;;;;;16.50;4.35;;;7.60;99.90;;;;;;4158291;28;20064;-70
2023/04/25 04:51:44;;;;;;;12.35;3.40;;;7.60;99.90;;;;;;4152808;28;20038;-69
2023/04/25 04:53:44;;;;;;;13.95;4.15;;;7.60;99.90;;;;;;4155155;28;20068;-70
2023/04/25 04:55:46;;;;;;;9.77;3.75;;;7.60;99.90;;;;;;4155574;28;20503;-70
2023/04/25 04:57:46;;;;;;;15.23;5.13;;;7.60;99.90;;;;;;4145448;28;20050;-70
2023/04/25 04:59:47;;;;;;;14.23;4.18;;;7.60;99.90;;;;;;4154515;28;20049;-69
2023/04/25 05:01:47;;;;;;;9.55;3.80;;;7.60;99.90;;;;;;4154476;28;20133;-69
2023/04/25 05:03:48;;;;;;;16.05;4.15;;;7.60;99.90;;;;;;4156501;28;20038;-69
2023/04/25 05:05:48;;;;;;;14.10;3.97;;;7.60;99.90;;;;;;4158074;28;20103;-70
2023/04/25 05:07:49;;;;;;;9.90;3.80;;;7.60;99.90;;;;;;4158728;28;20044;-70
2023/04/25 05:09:49;;;;;;;15.43;4.32;;;7.60;99.90;;;;;;4160105;28;20034;-70
2023/04/25 05:11:50;;;;;;;18.40;4.50;;;7.60;99.90;;;;;;4158445;28;20388;-70
2023/04/25 05:13:54;;;;;;;11.93;3.83;;;7.60;99.90;;;;;;4159215;28;20030;-69
2023/04/25 05:15:54;;;;;;;15.32;5.55;;;7.60;99.90;;;;;;4158161;28;20693;-69
2023/04/25 05:17:55;;;;;;;20.27;9.30;;;7.60;99.90;;;;;;4159512;28;20053;-70
2023/04/25 05:19:55;;;;;;;20.95;8.82;;;7.60;99.90;;;;;;4159980;28;20034;-70
2023/04/25 05:21:56;;;;;;;19.58;7.18;;;7.70;99.90;;;;;;4155397;28;20045;-69
2023/04/25 05:23:57;;;;;;;21.45;7.07;;;7.70;99.90;;;;;;4154882;28;20036;-69
2023/04/25 05:25:57;;;;;;;20.75;7.82;;;7.80;99.90;;;;;;4141685;28;20045;-70
2023/04/25 05:27:58;;;;;;;14.48;5.50;;;7.70;99.90;;;;;;4155755;28;20029;-69
2023/04/25 05:29:58;;;;;;;12.93;5.43;;;7.80;99.90;;;;;;4155972;28;20044;-70
2023/04/25 05:31:59;;;;;;;17.10;5.07;;;7.90;99.90;;;;;;4152833;28;20045;-70
2023/04/25 05:34:00;;;;;;;13.93;5.05;;;7.90;99.90;;;;;;4154189;28;20112;-70
2023/04/25 05:36:00;;;;;;;14.32;4.78;;;7.80;99.90;;;;;;4151334;28;20103;-70
2023/04/25 05:38:01;;;;;;;12.75;4.10;;;7.90;99.90;;;;;;4152281;28;20557;-69
2023/04/25 05:40:06;;;;;;;16.58;4.45;;;7.80;99.90;;;;;;4156083;28;20053;-71
2023/04/25 05:42:07;;;;;;;19.55;4.53;;;7.90;99.90;;;;;;4142010;28;20041;-68
2023/04/25 05:44:07;;;;;;;9.25;3.53;;;7.80;99.90;;;;;;4154642;28;20029;-69
2023/04/25 05:46:08;;;;;;;15.40;4.82;;;7.90;99.90;;;;;;4153988;28;20044;-69
2023/04/25 05:48:08;;;;;;;15.45;4.53;;;7.90;99.90;;;;;;4154785;28;20061;-70
2023/04/25 05:50:09;;;;;;;10.32;4.30;;;7.90;99.90;;;;;;4155196;28;20034;-70
2023/04/25 05:52:10;;;;;;;13.27;4.00;;;7.90;99.90;;;;;;4151880;28;20026;-69
2023/04/25 05:54:10;;;;;;;13.07;4.15;;;8.00;99.90;;;;;;4155082;28;20061;-69
2023/04/25 05:56:11;;;;;;;13.98;3.95;;;7.90;99.90;;;;;;4151889;28;20056;-71
2023/04/25 05:58:12;;;;;;;10.60;3.50;;;8.00;99.90;;;;;;4152447;28;20076;-72
2023/04/25 06:00:14;;;;;;;12.50;3.92;;;8.10;99.90;;;;;;4149935;28;20042;-68
2023/04/25 06:02:15;;;;;;;;;;;8.10;99.90;;;;;;4156338;28;20041;-69
2023/04/25 06:04:15;;;;;;;16.80;4.25;;;8.10;99.90;;;;;;4138298;28;19917;-69
2023/04/25 06:06:16;;;;;;;14.95;4.05;;;8.20;99.90;;;;;;4153402;28;20081;-69
2023/04/25 06:08:17;;;;;;;12.45;4.07;;;8.20;99.90;;;;;;4151557;28;20067;-70
2023/04/25 06:10:18;;;;;;;24.90;4.78;;;8.20;99.90;;;;;;4155030;28;20400;-69
2023/04/25 06:12:18;;;;;;;13.60;4.30;;;8.20;99.90;;;;;;4156207;28;20061;-69
2023/04/25 06:14:19;;;;;;;12.65;4.10;;;8.20;99.90;;;;;;4155161;28;20061;-70
2023/04/25 06:16:19;;;;;;;13.55;3.75;;;8.30;99.90;;;;;;4138390;28;20042;-70
2023/04/25 06:18:20;;;;;;;11.23;4.05;;;8.30;99.90;;;;;;4153233;28;20123;-69
2023/04/25 06:20:23;;;;;;;11.30;3.90;;;8.30;99.90;;;;;;4150255;28;20041;-69
2023/04/25 06:22:24;;;;;;;11.07;3.45;;;8.40;99.90;;;;;;4153151;28;20077;-70
2023/04/25 06:24:24;;;;;;;11.93;3.80;;;8.50;99.90;;;;;;4155432;28;20045;-69
2023/04/25 06:26:25;;;;;;;17.25;4.03;;;8.60;99.90;;;;;;4153162;28;20523;-70
2023/04/25 06:28:26;;;;;;;12.77;3.90;;;8.60;99.90;;;;;;4153991;28;20153;-70
2023/04/25 06:30:26;;;;;;;13.32;3.70;;;8.70;99.90;;;;;;4136412;28;20045;-70
2023/04/25 06:32:29;;;;;;;14.77;3.53;;;8.80;99.90;;;;;;4152986;28;20671;-70
2023/04/25 06:34:30;;;;;;;16.23;3.70;;;8.90;99.90;;;;;;4153135;28;20038;-70
2023/04/25 06:36:30;;;;;;;14.02;3.58;;;8.90;99.90;;;;;;4151890;28;20492;-70
2023/04/25 06:38:31;;;;;;;14.18;3.85;;;9.10;99.90;;;;;;4136170;28;20964;-70
2023/04/25 06:40:31;;;;;;;14.27;4.53;;;9.20;99.90;;;;;;4153351;28;20164;-69
2023/04/25 06:42:32;;;;;;;14.18;3.75;;;9.40;99.90;;;;;;4153189;28;20046;-70
2023/04/25 06:44:33;;;;;;;13.80;3.72;;;9.60;99.90;;;;;;4151463;28;20136;-70
2023/04/25 06:46:33;;;;;;;13.88;3.47;;;9.90;99.90;;;;;;4150491;28;20041;-70
2023/04/25 06:48:34;;;;;;;17.35;3.95;;;10.20;99.90;;;;;;4153848;28;20039;-70
2023/04/25 06:50:34;;;;;;;17.75;3.85;;;10.40;99.90;;;;;;4154906;28;20044;-71
2023/04/25 06:52:35;;;;;;;13.00;3.30;;;10.50;99.90;;;;;;4155887;28;20045;-70
2023/04/25 06:54:35;;;;;;;13.50;3.83;;;10.70;99.90;;;;;;4153847;28;20108;-70
2023/04/25 06:56:36;;;;;;;13.60;3.85;;;11.00;99.90;;;;;;4154596;28;20053;-69
2023/04/25 06:58:37;;;;;;;10.65;3.50;;;11.20;99.90;;;;;;4151281;28;20057;-70
2023/04/25 07:00:37;;;;;;;11.73;3.92;;;11.30;99.90;;;;;;4154828;28;20040;-70
2023/04/25 07:02:38;;;;;;;11.23;3.10;;;11.50;99.90;;;;;;4154452;28;20441;-70
2023/04/25 07:04:38;;;;;;;12.77;3.33;;;11.60;99.90;;;;;;4155253;28;20064;-70
2023/04/25 07:06:42;;;;;;;11.98;3.08;;;11.50;99.90;;;;;;4153560;28;20675;-69
2023/04/25 07:08:43;;;;;;;12.10;3.33;;;11.40;99.90;;;;;;4155495;28;21010;-71
2023/04/25 07:10:43;;;;;;;14.20;3.95;;;11.40;99.90;;;;;;4153346;28;20048;-70
2023/04/25 07:12:44;;;;;;;10.20;2.65;;;11.40;99.90;;;;;;4152425;28;20488;-69
2023/04/25 07:14:44;;;;;;;11.10;2.80;;;11.50;99.90;;;;;;4153471;28;20120;-70
2023/04/25 07:16:45;;;;;;;12.18;3.20;;;11.50;99.90;;;;;;4136535;28;20401;-71
2023/04/25 07:18:46;;;;;;;15.48;3.53;;;11.60;99.90;;;;;;4151144;28;20091;-69
2023/04/25 07:20:46;;;;;;;9.43;2.88;;;11.60;99.90;;;;;;4155443;28;20049;-70
2023/04/25 07:22:47;;;;;;;9.30;2.88;;;11.80;99.90;;;;;;4153470;28;20046;-71
2023/04/25 07:24:48;;;;;;;7.25;2.72;;;11.90;99.90;;;;;;4155200;28;20045;-69
2023/04/25 07:26:49;;;;;;;8.98;2.95;;;12.00;99.90;;;;;;4154662;28;20103;-70
2023/04/25 07:28:51;;;;;;;12.07;3.05;;;12.10;99.90;;;;;;4153741;28;20075;-71
2023/04/25 07:30:51;;;;;;;8.17;2.47;;;12.10;99.90;;;;;;4154094;28;20029;-71
2023/04/25 07:32:52;;;;;;;9.00;3.00;;;12.30;99.90;;;;;;4152271;28;20287;-71
2023/04/25 07:34:52;;;;;;;12.02;3.05;;;12.40;99.90;;;;;;4154928;28;20051;-71
2023/04/25 07:36:53;;;;;;;10.77;2.90;;;12.60;99.90;;;;;;4153998;28;20045;-72
2023/04/25 07:38:54;;;;;;;5.53;1.98;;;12.70;99.90;;;;;;4153452;28;20120;-71
2023/04/25 07:40:54;;;;;;;6.75;2.65;;;12.80;99.90;;;;;;4154762;28;20485;-71
2023/04/25 07:42:55;;;;;;;10.77;2.97;;;12.80;99.90;;;;;;4152739;28;20064;-72
2023/04/25 07:44:55;;;;;;;11.50;3.00;;;12.90;99.90;;;;;;4138578;28;20046;-72
2023/04/25 07:46:56;;;;;;;7.90;2.70;;;12.90;99.90;;;;;;4154880;28;20060;-72
2023/04/25 07:48:57;;;;;;;6.72;2.40;;;13.00;99.90;;;;;;4155448;28;20037;-72
2023/04/25 07:50:57;;;;;;;11.32;2.53;;;13.10;99.90;;;;;;4154290;28;20295;-73
2023/04/25 07:52:58;;;;;;;9.07;2.63;;;13.20;99.90;;;;;;4153619;28;20542;-72
2023/04/25 07:54:58;;;;;;;11.73;2.85;;;13.30;99.90;;;;;;4155671;28;20052;-72
2023/04/25 07:56:59;;;;;;;5.80;2.15;;;13.40;99.90;;;;;;4154520;28;20037;-72
2023/04/25 07:59:00;;;;;;;15.38;3.50;;;13.50;99.90;;;;;;4152750;28;20664;-72
2023/04/25 08:01:01;;;;;;;10.50;2.45;;;13.60;99.90;;;;;;4153197;28;20060;-72
2023/04/25 08:03:02;;;;;;;8.05;2.38;;;13.60;99.90;;;;;;4153180;28;20169;-71
2023/04/25 08:05:03;;;;;;;6.93;1.77;;;13.70;99.90;;;;;;4154818;28;20381;-72
2023/04/25 08:07:04;;;;;;;7.50;2.25;;;13.80;99.90;;;;;;4155075;28;20045;-73
2023/04/25 08:09:04;;;;;;;11.07;2.58;;;13.90;99.90;;;;;;4154310;28;20030;-72
2023/04/25 08:11:05;;;;;;;7.82;1.92;;;13.90;99.90;;;;;;4153100;28;20088;-72
2023/04/25 08:13:05;;;;;;;5.97;2.00;;;14.00;99.90;;;;;;4153359;28;20034;-72
2023/04/25 08:15:07;;;;;;;7.10;2.00;;;14.00;99.90;;;;;;4152075;28;20033;-72
2023/04/25 08:17:07;;;;;;;7.57;2.25;;;14.00;99.90;;;;;;4144786;28;20476;-72
2023/04/25 08:19:08;;;;;;;6.90;2.10;;;13.90;99.90;;;;;;4147309;28;20041;-71
2023/04/25 08:21:11;;;;;;;9.63;2.53;;;13.80;99.90;;;;;;4147905;28;20040;-73
2023/04/25 08:23:11;;;;;;;8.63;2.40;;;13.70;99.90;;;;;;4149657;28;20077;-72
2023/04/25 08:25:12;;;;;;;6.05;1.90;;;13.60;99.90;;;;;;4152323;28;20033;-73
2023/04/25 08:27:13;;;;;;;5.63;2.10;;;13.60;99.90;;;;;;4151619;28;20045;-71
2023/04/25 08:29:13;;;;;;;9.60;2.60;;;13.50;99.90;;;;;;4152295;28;20110;-72
2023/04/25 08:31:14;;;;;;;9.40;2.55;;;13.40;99.90;;;;;;4156903;28;20037;-71
2023/04/25 08:33:15;;;;;;;15.65;3.20;;;13.40;99.90;;;;;;4155724;28;20047;-71
2023/04/25 08:35:17;;;;;;;9.27;2.20;;;13.30;99.90;;;;;;4156806;28;20061;-70
2023/04/25 08:37:19;;;;;;;5.85;2.22;;;13.30;99.90;;;;;;4156548;28;20049;-72
2023/04/25 08:39:20;;;;;;;7.63;2.28;;;13.40;99.90;;;;;;4156850;28;20095;-72
2023/04/25 08:41:22;;;;;;;7.75;2.22;;;13.50;99.90;;;;;;4155299;28;20052;-73
2023/04/25 08:43:24;;;;;;;9.60;2.57;;;13.60;99.90;;;;;;4155875;28;21156;-72
2023/04/25 08:45:29;;;;;;;5.68;2.25;;;13.60;99.90;;;;;;4153424;28;20040;-73
2023/04/25 08:47:33;;;;;;;8.85;2.40;;;13.70;99.90;;;;;;4155949;28;20447;-72
2023/04/25 08:49:34;;;;;;;4.72;1.70;;;13.70;99.90;;;;;;4154209;28;20037;-72
2023/04/25 08:51:40;;;;;;;5.20;1.50;;;13.70;99.90;;;;;;4156503;28;20657;-71
2023/04/25 08:53:42;;;;;;;4.05;1.23;;;13.80;99.90;;;;;;4157030;28;20048;-71
2023/04/25 08:55:43;;;;;;;5.50;2.10;;;13.90;99.90;;;;;;4155106;28;20664;-72
2023/04/25 08:57:44;;;;;;;5.93;1.85;;;14.00;99.90;;;;;;4158443;28;20175;-72
2023/04/25 08:59:46;;;;;;;13.20;2.10;;;14.00;99.90;;;;;;4157555;28;20117;-71
2023/04/25 09:01:48;;;;;;;7.68;1.80;;;14.00;99.90;;;;;;4155697;28;20084;-71
2023/04/25 09:03:49;;;;;;;4.53;1.70;;;14.10;99.90;;;;;;4155026;28;20041;-72
2023/04/25 09:05:51;;;;;;;6.07;1.45;;;14.20;99.90;;;;;;4155051;28;20045;-72
2023/04/25 09:07:51;;;;;;;5.60;1.77;;;14.20;99.90;;;;;;4157039;28;20055;-73
2023/04/25 09:09:52;;;;;;;9.45;1.63;;;14.20;99.90;;;;;;4156723;28;20272;-72
2023/04/25 09:11:54;;;;;;;9.50;2.22;;;14.20;99.90;;;;;;4155188;28;20124;-73
2023/04/25 09:14:12;;;;;;;5.30;1.52;;;13.90;99.90;;;;;;4155132;28;20574;-72
2023/04/25 09:16:17;;;;;;;4.80;1.55;;;13.80;99.90;;;;;;4156415;28;20042;-72
2023/04/25 09:18:25;;;;;;;5.03;1.30;;;13.80;99.90;;;;;;4155256;28;20403;-71
2023/04/25 09:20:26;;;;;;;4.65;1.40;;;13.80;99.90;;;;;;4156863;28;20033;-71
2023/04/25 09:22:26;;;;;;;5.72;1.70;;;13.80;99.90;;;;;;4141606;28;20121;-72
2023/04/25 09:24:34;;;;;;;13.30;2.53;;;13.60;99.90;;;;;;4154861;28;20453;-72
2023/04/25 09:26:35;;;;;;;6.80;2.00;;;13.30;99.90;;;;;;4155703;28;20100;-71
2023/04/25 09:28:37;;;;;;;6.13;1.65;;;13.20;99.90;;;;;;4155400;28;20037;-71
2023/04/25 09:30:38;;;;;;;6.65;1.42;;;13.10;99.90;;;;;;4155363;28;20041;-71
2023/04/25 09:32:38;;;;;;;5.70;1.70;;;13.00;99.90;;;;;;4156100;28;20036;-72
2023/04/25 09:34:44;;;;;;;3.85;1.33;;;12.80;99.90;;;;;;4156176;28;20400;-71
2023/04/25 09:36:45;;;;;;;9.82;1.85;;;12.80;99.90;;;;;;4155291;28;20044;-70
2023/04/25 09:38:46;;;;;;;7.13;1.92;;;12.70;99.90;;;;;;4154436;28;20044;-70
2023/04/25 09:40:49;;;;;;;9.05;2.17;;;12.60;99.90;;;;;;4152235;28;20069;-71
2023/04/25 09:42:50;;;;;;;7.43;1.40;;;12.60;99.90;;;;;;4155982;28;20757;-71
2023/04/25 09:44:55;;;;;;;5.63;1.63;;;12.60;99.90;;;;;;4156678;28;20037;-71
2023/04/25 09:46:56;;;;;;;3.17;1.13;;;12.60;99.90;;;;;;4156757;28;20053;-71
2023/04/25 09:48:57;;;;;;;4.28;1.63;;;12.60;99.90;;;;;;4155780;28;20516;-72
2023/04/25 09:51:09;;;;;;;6.63;1.55;;;12.60;99.90;;;;;;4156061;28;20076;-72
2023/04/25 09:53:09;;;;;;;5.30;1.40;;;12.50;99.90;;;;;;4154865;28;20036;-72
2023/04/25 09:55:10;;;;;;;8.32;1.60;;;12.50;99.90;;;;;;4156026;28;20077;-70
2023/04/25 09:57:14;;;;;;;10.45;2.10;;;12.50;99.90;;;;;;4156391;28;20037;-71
2023/04/25 09:59:15;;;;;;;7.30;1.98;;;12.60;99.90;;;;;;4155616;28;20032;-70
2023/04/25 10:01:16;;;;;;;4.53;1.63;;;12.70;99.90;;;;;;4154356;28;20076;-70
2023/04/25 10:03:22;;;;;;;3.42;1.48;;;12.80;99.90;;;;;;4155450;28;20511;-71
2023/04/25 10:05:24;;;;;;;7.25;1.83;;;12.90;99.90;;;;;;4156071;28;20112;-70
2023/04/25 10:07:29;;;;;;;5.25;1.63;;;12.90;99.90;;;;;;4152949;28;20073;-70
2023/04/25 10:09:35;;;;;;;6.32;2.13;;;13.00;99.90;;;;;;4154027;28;20041;-70
2023/04/25 10:11:38;;;;;;;7.70;1.48;;;13.00;99.90;;;;;;4152357;28;20093;-71
2023/04/25 10:13:38;;;;;;;5.43;1.65;;;12.90;99.90;;;;;;4154795;28;20041;-71
2023/04/25 10:15:40;;;;;;;4.85;1.90;;;12.80;99.90;;;;;;4155008;28;20041;-71
2023/04/25 10:17:40;;;;;;;8.40;2.10;;;12.80;99.90;;;;;;4155933;28;20045;-71
2023/04/25 10:19:41;;;;;;;6.55;1.50;;;12.70;99.90;;;;;;4155949;28;20033;-69
2023/04/25 10:21:52;;;;;;;3.25;1.15;;;12.70;99.90;;;;;;4154473;28;20072;-71
2023/04/25 10:23:53;;;;;;;6.70;1.95;;;12.70;99.90;;;;;;4154134;28;20042;-70
2023/04/25 10:25:54;;;;;;;5.60;1.30;;;12.70;99.90;;;;;;4154899;28;20501;-71
2023/04/25 10:27:55;;;;;;;4.90;1.55;;;12.70;99.90;;;;;;4154750;28;20496;-71
2023/04/25 10:30:10;;;;;;;4.90;1.98;;;12.70;99.90;;;;;;4157457;28;20041;-71
2023/04/25 10:32:11;;;;;;;4.80;1.60;;;12.60;99.90;;;;;;4157019;28;20389;-70